Time;durP1;ratioP1;P1;durP2;ratioP2;P2;SDS_P1;SDS_P2;PMS_P1;PMS_P2;Temp;Humidity;BMP_temperature;BMP_pressure;BME280_temperature;BME280_humidity;BME280_pressure;Samples;Min_cycle;Max_cycle;Signal;HPM_P1;HPM_P2
2021/07/24 00:01:23;;;;;;;19.67;16.27;;;;;;;19.59;63.91;100483.53;4913848;28;128815;-74
2021/07/24 00:03:49;;;;;;;18.92;16.60;;;;;;;19.61;63.70;100484.03;4867069;28;118313;-74
2021/07/24 00:06:15;;;;;;;18.95;16.58;;;;;;;19.63;63.82;100480.16;4913416;28;127485;-74
2021/07/24 00:08:41;;;;;;;19.08;16.42;;;;;;;19.64;64.01;100487.22;4886802;28;97849;-74
2021/07/24 00:11:09;;;;;;;18.75;16.67;;;;;;;19.61;63.68;100481.31;4931128;28;127533;-74
2021/07/24 00:13:36;;;;;;;18.45;16.45;;;;;;;19.59;63.58;100474.53;4901146;28;97844;-75
2021/07/24 00:16:03;;;;;;;19.80;16.83;;;;;;;19.56;63.76;100475.16;4901141;28;98483;-74
2021/07/24 00:18:29;;;;;;;20.08;16.63;;;;;;;19.52;63.80;100471.50;4903029;28;98092;-74
2021/07/24 00:20:55;;;;;;;19.50;16.70;;;;;;;19.45;64.08;100473.91;4902299;28;117524;-74
2021/07/24 00:23:21;;;;;;;18.60;16.40;;;;;;;19.37;63.84;100470.91;4933202;28;116470;-74
2021/07/24 00:25:48;;;;;;;21.38;16.92;;;;;;;19.32;64.38;100473.78;4899723;28;125369;-74
2021/07/24 00:28:14;;;;;;;19.33;17.20;;;;;;;19.24;64.72;100471.88;4900832;28;128129;-74
2021/07/24 00:30:41;;;;;;;20.05;17.05;;;;;;;19.17;64.78;100463.38;4899161;28;127003;-74
2021/07/24 00:33:07;;;;;;;19.45;16.55;;;;;;;19.08;65.17;100460.69;4881903;28;98109;-74
2021/07/24 00:35:34;;;;;;;18.92;16.23;;;;;;;19.04;65.46;100462.44;4883466;28;98072;-74
2021/07/24 00:38:01;;;;;;;18.75;16.23;;;;;;;18.99;65.47;100462.63;4892824;28;97887;-75
2021/07/24 00:40:29;;;;;;;19.50;16.52;;;;;;;18.96;65.59;100459.75;4886167;28;98193;-75
2021/07/24 00:42:57;;;;;;;20.23;16.33;;;;;;;18.94;65.66;100459.25;4912987;28;98064;-74
2021/07/24 00:45:24;;;;;;;19.05;15.93;;;;;;;18.89;65.76;100461.03;4913381;28;98424;-74
2021/07/24 00:47:54;;;;;;;19.02;16.63;;;;;;;18.89;65.65;100458.28;4913377;28;98502;-75
2021/07/24 00:50:20;;;;;;;20.98;16.45;;;;;;;18.90;65.87;100464.56;4896724;28;99142;-73
2021/07/24 00:52:48;;;;;;;19.73;16.42;;;;;;;18.87;65.77;100455.09;4880632;28;118870;-74
2021/07/24 00:55:15;;;;;;;22.73;16.80;;;;;;;18.85;65.98;100453.81;4913332;28;97675;-74
2021/07/24 00:57:42;;;;;;;18.42;16.42;;;;;;;18.82;66.11;100455.28;4928676;28;117704;-75
2021/07/24 01:00:09;;;;;;;19.92;16.98;;;;;;;18.77;66.11;100452.69;4902456;28;97926;-75
2021/07/24 01:02:37;;;;;;;21.73;17.17;;;;;;;18.75;66.25;100452.22;4900766;28;97907;-74
2021/07/24 01:05:04;;;;;;;20.10;16.45;;;;;;;18.71;66.41;100448.53;4899418;28;117676;-73
2021/07/24 01:07:40;;;;;;;20.23;16.50;;;;;;;18.70;65.81;100437.88;4883193;28;97530;-75
2021/07/24 01:10:07;;;;;;;22.23;17.08;;;;;;;18.70;66.42;100446.06;4891947;28;127473;-74
2021/07/24 01:12:34;;;;;;;20.90;16.00;;;;;;;18.68;66.36;100446.41;4914890;28;97946;-75
2021/07/24 01:15:07;;;;;;;19.20;16.60;;;;;;;18.62;66.18;100437.56;4915485;28;118624;-75
2021/07/24 01:17:33;;;;;;;18.83;16.48;;;;;;;18.65;66.42;100447.84;4899587;28;100381;-74
2021/07/24 01:20:01;;;;;;;18.55;16.55;;;;;;;18.63;66.64;100443.84;4890025;28;108697;-74
2021/07/24 01:22:28;;;;;;;18.80;16.77;;;;;;;18.61;66.84;100437.88;4883021;28;105407;-74
2021/07/24 01:24:54;;;;;;;18.30;16.35;;;;;;;18.58;66.91;100435.78;4896309;28;113123;-74
2021/07/24 01:27:20;;;;;;;26.40;21.95;;;;;;;18.53;67.08;100431.31;4881359;28;128655;-74
2021/07/24 01:29:46;;;;;;;30.15;26.15;;;;;;;18.49;67.26;100435.00;4882444;28;98337;-75
2021/07/24 01:32:12;;;;;;;29.17;25.27;;;;;;;18.43;67.17;100425.34;4880170;28;116428;-74
2021/07/24 01:34:38;;;;;;;28.27;23.83;;;;;;;18.38;67.56;100432.59;4890786;28;128003;-74
2021/07/24 01:37:04;;;;;;;26.58;23.70;;;;;;;18.35;67.48;100426.97;4901079;28;126516;-74
2021/07/24 01:39:30;;;;;;;24.67;21.48;;;;;;;18.34;67.59;100423.44;4889104;28;126913;-73
2021/07/24 01:41:57;;;;;;;23.95;21.02;;;;;;;18.33;67.58;100418.31;4890010;28;98095;-74
2021/07/24 01:44:23;;;;;;;24.10;21.17;;;;;;;18.35;67.71;100425.06;4902809;28;98656;-73
2021/07/24 01:46:49;;;;;;;24.90;21.42;;;;;;;18.37;67.71;100422.00;4901817;28;98317;-73
2021/07/24 01:54:54;;;;;;;23.98;20.88;;;;;;;18.39;67.49;100417.84;4900485;28;98298;-74
2021/07/24 01:57:21;;;;;;;23.95;20.55;;;;;;;18.42;67.71;100419.09;4869055;28;113535;-73
2021/07/24 01:59:47;;;;;;;24.30;20.20;;;;;;;18.44;67.62;100416.06;4867105;28;98007;-73
2021/07/24 02:02:16;;;;;;;24.30;18.75;;;;;;;18.44;67.26;100413.34;4902256;28;102496;-74
2021/07/24 02:04:49;;;;;;;20.30;18.10;;;;;;;18.46;67.11;100411.88;4899071;28;110520;-73
2021/07/24 02:07:16;;;;;;;20.48;17.42;;;;;;;18.49;67.58;100411.25;4899635;28;98520;-73
2021/07/24 02:09:43;;;;;;;21.98;18.20;;;;;;;18.51;67.46;100413.63;4886198;28;111503;-73
2021/07/24 02:12:10;;;;;;;21.13;18.25;;;;;;;18.50;67.41;100412.84;4905412;28;104751;-74
2021/07/24 02:14:36;;;;;;;21.05;17.58;;;;;;;18.51;67.67;100411.75;4904763;28;98775;-73
2021/07/24 02:17:02;;;;;;;21.38;17.83;;;;;;;18.52;67.37;100407.88;4901624;28;126997;-73
2021/07/24 02:19:30;;;;;;;21.42;17.55;;;;;;;18.53;67.23;100408.69;4894745;28;98180;-73
2021/07/24 02:21:56;;;;;;;20.20;17.63;;;;;;;18.53;67.17;100408.69;4883773;28;97895;-73
2021/07/24 02:24:23;;;;;;;20.67;17.60;;;;;;;18.55;67.23;100407.25;4883377;28;114946;-74
2021/07/24 02:26:49;;;;;;;21.65;17.95;;;;;;;18.54;67.07;100405.63;4900182;28;99910;-73
2021/07/24 02:29:15;;;;;;;21.75;17.92;;;;;;;18.54;67.23;100404.81;4890564;28;126184;-73
2021/07/24 02:31:41;;;;;;;21.55;18.42;;;;;;;18.54;67.07;100402.88;4918712;28;113464;-73
2021/07/24 02:34:07;;;;;;;23.08;17.80;;;;;;;18.54;67.14;100397.44;4896984;28;116212;-74
2021/07/24 02:36:33;;;;;;;22.92;18.05;;;;;;;18.52;67.21;100398.91;4884326;28;126912;-73
2021/07/24 02:38:59;;;;;;;22.52;17.92;;;;;;;18.53;67.36;100398.56;4884631;28;127646;-73
2021/07/24 02:41:25;;;;;;;22.30;19.40;;;;;;;18.51;67.18;100395.38;4916160;28;97959;-73
2021/07/24 02:43:51;;;;;;;24.92;22.00;;;;;;;18.50;67.15;100398.41;4885219;28;98204;-73
2021/07/24 02:46:19;;;;;;;26.35;23.52;;;;;;;18.46;67.26;100392.78;4899678;28;104383;-73
2021/07/24 02:48:48;;;;;;;28.73;25.17;;;;;;;18.40;67.17;100383.97;4899567;28;97952;-73
2021/07/24 02:51:15;;;;;;;29.08;24.83;;;;;;;18.40;67.36;100388.63;4883887;28;105505;-73
2021/07/24 02:53:41;;;;;;;25.90;21.92;;;;;;;18.35;67.34;100392.31;4884737;28;98529;-73
2021/07/24 02:56:07;;;;;;;24.25;19.80;;;;;;;18.32;67.66;100392.94;4884785;28;115480;-73
2021/07/24 02:58:33;;;;;;;21.83;19.10;;;;;;;18.30;67.71;100391.66;4912282;28;97904;-74
2021/07/24 03:01:04;;;;;;;21.98;18.60;;;;;;;18.28;67.67;100394.72;4884122;28;97776;-72
2021/07/24 03:03:30;;;;;;;21.25;18.60;;;;;;;18.26;67.51;100390.69;4884905;28;110850;-73
2021/07/24 03:05:56;;;;;;;21.67;18.38;;;;;;;18.24;67.66;100391.03;4885177;28;98517;-72
2021/07/24 03:08:23;;;;;;;21.75;18.58;;;;;;;18.21;67.80;100388.94;4882118;28;125257;-72
2021/07/24 03:10:49;;;;;;;21.98;18.63;;;;;;;18.17;67.86;100382.50;4903205;28;117470;-73
2021/07/24 03:13:15;;;;;;;23.45;20.30;;;;;;;18.17;67.93;100381.72;4903523;28;127659;-73
2021/07/24 03:15:41;;;;;;;25.80;22.35;;;;;;;18.13;68.03;100378.81;4901878;28;128301;-73
2021/07/24 03:18:07;;;;;;;29.45;24.90;;;;;;;18.09;68.37;100381.38;4900725;28;127725;-72
2021/07/24 03:20:33;;;;;;;30.33;24.77;;;;;;;18.06;68.25;100379.28;4884795;28;116513;-72
2021/07/24 03:23:00;;;;;;;30.67;26.33;;;;;;;18.03;68.23;100379.91;4901638;28;125726;-72
2021/07/24 03:25:27;;;;;;;32.38;26.88;;;;;;;18.03;68.28;100381.84;4903797;28;98865;-73
2021/07/24 03:27:54;;;;;;;33.80;27.52;;;;;;;18.03;68.43;100374.47;4904223;28;121816;-72
2021/07/24 03:30:20;;;;;;;30.30;26.13;;;;;;;18.04;68.65;100367.13;4902327;28;98017;-72
2021/07/24 03:32:46;;;;;;;31.55;25.70;;;;;;;18.04;68.50;100369.84;4903207;28;127903;-72
2021/07/24 03:35:12;;;;;;;28.38;25.05;;;;;;;18.05;68.29;100365.97;4901172;28;105657;-72
2021/07/24 03:37:38;;;;;;;27.13;23.58;;;;;;;18.05;68.50;100368.72;4917022;28;126266;-73
2021/07/24 03:40:05;;;;;;;25.98;23.17;;;;;;;18.06;68.55;100367.56;4921179;28;117363;-72
2021/07/24 03:42:31;;;;;;;25.33;22.63;;;;;;;18.06;68.56;100373.84;4882117;28;99656;-72
2021/07/24 03:44:57;;;;;;;25.40;22.63;;;;;;;18.07;68.43;100375.44;4883514;28;99148;-72
2021/07/24 03:47:23;;;;;;;26.42;23.17;;;;;;;18.06;68.43;100376.56;4899248;28;126783;-72
2021/07/24 03:49:49;;;;;;;27.92;23.38;;;;;;;18.05;68.46;100383.16;4902138;28;117951;-72
2021/07/24 03:52:15;;;;;;;28.80;23.98;;;;;;;18.06;68.56;100384.75;4901159;28;127756;-72
2021/07/24 03:54:41;;;;;;;28.58;22.90;;;;;;;18.05;68.58;100382.34;4890209;28;127925;-72
2021/07/24 03:57:07;;;;;;;26.17;22.83;;;;;;;18.06;68.53;100379.28;4881227;28;122544;-72
2021/07/24 03:59:33;;;;;;;25.83;21.70;;;;;;;18.09;68.78;100386.03;4893599;28;98020;-72
2021/07/24 04:01:59;;;;;;;27.13;22.80;;;;;;;18.13;68.68;100389.72;4898298;28;98350;-72
2021/07/24 04:04:25;;;;;;;26.23;21.38;;;;;;;18.17;68.48;100382.50;4888282;28;99084;-72
2021/07/24 04:06:53;;;;;;;25.33;21.50;;;;;;;18.20;68.55;100381.88;4902174;28;127372;-72
2021/07/24 04:09:20;;;;;;;24.05;20.48;;;;;;;18.25;68.09;100381.72;4901528;28;108716;-72
2021/07/24 04:11:46;;;;;;;23.70;20.75;;;;;;;18.30;68.22;100388.94;4883842;28;127404;-72
2021/07/24 04:14:13;;;;;;;24.55;20.00;;;;;;;18.32;68.14;100387.50;4885735;28;98924;-72
2021/07/24 04:16:39;;;;;;;22.83;19.42;;;;;;;18.42;67.94;100388.28;4885201;28;99354;-72
2021/07/24 04:19:05;;;;;;;23.30;20.17;;;;;;;18.54;67.80;100388.44;4902839;28;118027;-72
2021/07/24 04:21:31;;;;;;;22.15;19.48;;;;;;;18.64;68.12;100399.03;4901804;28;127182;-72
2021/07/24 04:23:57;;;;;;;23.00;19.88;;;;;;;18.76;67.30;100395.69;4900363;28;126921;-72
2021/07/24 04:26:24;;;;;;;23.27;19.35;;;;;;;18.84;67.08;100401.13;4917428;28;104557;-72
2021/07/24 04:28:50;;;;;;;22.23;19.52;;;;;;;18.95;66.77;100392.59;4917146;28;98162;-72
2021/07/24 04:31:16;;;;;;;22.65;19.45;;;;;;;19.04;66.53;100402.34;4901089;28;118003;-72
2021/07/24 04:33:42;;;;;;;21.77;19.02;;;;;;;19.12;66.17;100389.81;4902606;28;98075;-72
2021/07/24 04:36:11;;;;;;;22.15;19.13;;;;;;;19.20;66.05;100405.38;4902627;28;106571;-73
2021/07/24 04:38:37;;;;;;;23.17;19.33;;;;;;;19.27;65.71;100404.88;4932949;28;98018;-72
2021/07/24 04:41:03;;;;;;;23.83;19.10;;;;;;;19.32;65.93;100404.69;4901943;28;128030;-73
2021/07/24 04:43:30;;;;;;;21.98;19.65;;;;;;;19.37;65.53;100402.59;4899499;28;127890;-72
2021/07/24 04:45:56;;;;;;;21.75;19.02;;;;;;;19.44;65.43;100404.00;4902873;28;97888;-72
2021/07/24 04:48:22;;;;;;;22.08;19.58;;;;;;;19.49;65.33;100403.81;4901159;28;115770;-72
2021/07/24 04:50:51;;;;;;;22.70;19.55;;;;;;;19.55;65.28;100410.69;4902292;28;100608;-72
2021/07/24 04:53:17;;;;;;;23.77;19.40;;;;;;;19.63;65.02;100414.56;4902454;28;114782;-72
2021/07/24 04:55:43;;;;;;;21.83;19.05;;;;;;;19.69;64.82;100418.69;4900887;28;125237;-72
2021/07/24 04:58:09;;;;;;;22.40;18.88;;;;;;;19.74;64.58;100413.84;4916545;28;118332;-72
2021/07/24 05:00:40;;;;;;;22.92;18.95;;;;;;;19.78;64.50;100416.72;4915539;28;98249;-73
2021/07/24 05:03:06;;;;;;;20.40;18.25;;;;;;;19.84;64.19;100416.19;4916713;28;98491;-72
2021/07/24 05:05:35;;;;;;;22.05;19.38;;;;;;;19.90;64.35;100418.75;4899272;28;126378;-72
2021/07/24 05:08:01;;;;;;;20.75;18.55;;;;;;;19.97;63.88;100414.38;4895706;28;98086;-72
2021/07/24 05:10:27;;;;;;;21.38;19.17;;;;;;;20.07;63.23;100418.63;4881814;28;113219;-72
2021/07/24 05:12:53;;;;;;;21.98;19.27;;;;;;;20.16;63.37;100411.19;4882875;28;128572;-72
2021/07/24 05:15:20;;;;;;;21.73;18.23;;;;;;;20.29;63.67;100412.06;4897455;28;97941;-72
2021/07/24 05:17:46;;;;;;;21.38;19.05;;;;;;;20.43;62.88;100409.84;4913240;28;108521;-72
2021/07/24 05:20:12;;;;;;;22.10;18.27;;;;;;;20.56;62.50;100414.28;4881030;28;126810;-72
2021/07/24 05:22:38;;;;;;;24.48;17.70;;;;;;;20.70;62.64;100410.44;4896398;28;121808;-72
2021/07/24 05:25:04;;;;;;;20.67;18.50;;;;;;;20.85;62.14;100418.03;4896942;28;106669;-72
2021/07/24 05:27:30;;;;;;;21.10;18.02;;;;;;;21.00;61.29;100425.63;4899632;28;97928;-72
2021/07/24 05:29:57;;;;;;;20.55;18.38;;;;;;;21.14;60.98;100424.50;4897977;28;127941;-72
2021/07/24 05:32:23;;;;;;;21.15;17.52;;;;;;;21.29;60.75;100415.63;4897407;28;98931;-72
2021/07/24 05:34:49;;;;;;;19.85;17.73;;;;;;;21.43;60.04;100424.34;4897946;28;127935;-72
2021/07/24 05:37:15;;;;;;;19.73;17.77;;;;;;;21.60;59.85;100417.06;4899415;28;97945;-72
2021/07/24 05:39:41;;;;;;;18.85;16.88;;;;;;;21.75;59.59;100424.59;4897732;28;128952;-72
2021/07/24 05:42:07;;;;;;;20.50;17.33;;;;;;;21.90;59.33;100421.16;4879086;28;128502;-73
2021/07/24 05:44:33;;;;;;;18.98;16.98;;;;;;;22.05;58.58;100417.72;4899763;28;128615;-72
2021/07/24 05:47:02;;;;;;;20.00;16.95;;;;;;;22.21;58.12;100417.81;4899881;28;119451;-72
2021/07/24 05:49:28;;;;;;;19.58;17.10;;;;;;;22.38;57.59;100419.50;4884021;28;101342;-72
2021/07/24 05:51:54;;;;;;;18.77;16.88;;;;;;;22.54;57.38;100419.56;4900344;28;98253;-72
2021/07/24 05:54:22;;;;;;;18.73;16.77;;;;;;;22.70;57.16;100422.34;4899473;28;127191;-72
2021/07/24 05:56:49;;;;;;;18.35;16.55;;;;;;;22.91;56.67;100414.75;4850985;28;98193;-73
2021/07/24 05:59:15;;;;;;;19.38;16.30;;;;;;;23.16;56.23;100418.13;4885018;28;98212;-73
2021/07/24 06:01:42;;;;;;;18.45;16.10;;;;;;;23.34;55.51;100413.06;4900859;28;127928;-72
2021/07/24 06:04:10;;;;;;;17.67;15.85;;;;;;;23.58;54.98;100412.13;4901133;28;127970;-72
2021/07/24 06:06:36;;;;;;;17.98;15.88;;;;;;;24.19;53.68;100422.56;4902214;28;98195;-73
2021/07/24 06:09:02;;;;;;;19.38;15.52;;;;;;;25.73;50.54;100411.66;4883802;28;98731;-73
2021/07/24 06:11:28;;;;;;;17.15;15.35;;;;;;;27.02;48.19;100410.56;4901642;28;101570;-73
2021/07/24 06:13:56;;;;;;;15.65;14.15;;;;;;;28.36;45.75;100412.78;4882438;28;125244;-73
2021/07/24 06:16:22;;;;;;;15.40;13.93;;;;;;;29.64;42.84;100399.59;4901084;28;116878;-74
2021/07/24 06:18:48;;;;;;;15.88;14.32;;;;;;;30.91;40.81;100407.88;4901362;28;98572;-74
2021/07/24 06:21:15;;;;;;;15.65;14.20;;;;;;;31.32;40.11;100410.75;4901012;28;127730;-74
2021/07/24 06:23:41;;;;;;;15.38;13.93;;;;;;;32.42;37.86;100411.69;4902167;28;98104;-74
2021/07/24 06:26:07;;;;;;;14.88;13.48;;;;;;;33.78;35.19;100420.78;4901742;28;100357;-74
2021/07/24 06:28:34;;;;;;;14.07;12.82;;;;;;;33.78;35.28;100409.59;4900434;28;98708;-75
2021/07/24 06:31:03;;;;;;;13.80;12.60;;;;;;;34.92;33.81;100401.66;4900121;28;118981;-74
2021/07/24 06:33:30;;;;;;;14.07;12.68;;;;;;;35.04;32.39;100394.59;4900573;28;98747;-73
2021/07/24 06:35:59;;;;;;;13.98;12.70;;;;;;;35.48;31.87;100380.31;4901380;28;97974;-74
2021/07/24 06:38:26;;;;;;;14.25;12.85;;;;;;;35.17;31.81;100377.88;4899688;28;98232;-73
2021/07/24 06:40:52;;;;;;;12.35;11.25;;;;;;;35.52;31.63;100375.41;4901150;28;98167;-71
2021/07/24 06:43:18;;;;;;;11.95;10.95;;;;;;;35.73;30.69;100383.28;4901337;28;109704;-72
2021/07/24 06:45:44;;;;;;;11.63;10.63;;;;;;;36.19;29.66;100388.81;4898726;28;118150;-72
2021/07/24 06:48:10;;;;;;;11.93;10.82;;;;;;;35.81;29.60;100375.44;4899101;28;104138;-71
2021/07/24 06:50:36;;;;;;;11.25;10.25;;;;;;;36.10;29.24;100373.44;4883843;28;98160;-71
2021/07/24 06:53:02;;;;;;;11.73;10.55;;;;;;;36.91;27.82;100368.59;4851365;28;98761;-70
2021/07/24 06:55:28;;;;;;;10.95;9.95;;;;;;;36.38;28.11;100356.97;4878379;28;116246;-72
2021/07/24 06:57:55;;;;;;;10.50;9.55;;;;;;;36.08;28.58;100345.06;4898968;28;98957;-70
2021/07/24 07:00:22;;;;;;;11.27;10.32;;;;;;;35.58;28.91;100328.84;4865766;28;98023;-70
2021/07/24 07:02:48;;;;;;;10.85;9.85;;;;;;;35.25;29.55;100322.47;4881434;28;125977;-71
2021/07/24 07:05:14;;;;;;;10.65;9.57;;;;;;;35.02;30.37;100331.88;4914558;28;109398;-70
2021/07/24 07:07:40;;;;;;;10.98;9.77;;;;;;;34.83;29.67;100325.91;4899746;28;126636;-70
2021/07/24 07:10:06;;;;;;;9.77;8.88;;;;;;;34.55;29.04;100319.00;4899595;28;126914;-70
2021/07/24 07:12:32;;;;;;;9.75;8.75;;;;;;;34.40;28.96;100321.28;4900524;28;110285;-71
2021/07/24 07:14:59;;;;;;;9.73;8.82;;;;;;;34.04;27.81;100317.72;4900136;28;117859;-70
2021/07/24 07:17:25;;;;;;;9.98;9.07;;;;;;;33.91;28.72;100320.31;4901161;28;98498;-71
2021/07/24 07:19:51;;;;;;;9.93;9.02;;;;;;;33.87;28.68;100322.41;4901497;28;98472;-71
2021/07/24 07:22:17;;;;;;;10.13;9.10;;;;;;;33.79;28.94;100320.97;4900749;28;98007;-71
2021/07/24 07:24:43;;;;;;;10.25;9.25;;;;;;;33.68;28.86;100323.97;4899843;28;117962;-71
2021/07/24 07:27:09;;;;;;;9.77;8.77;;;;;;;33.56;28.70;100319.00;4914908;28;98489;-71
2021/07/24 07:29:35;;;;;;;10.10;9.20;;;;;;;33.66;28.98;100318.81;4897267;28;128392;-71
2021/07/24 07:32:01;;;;;;;10.43;9.23;;;;;;;33.86;29.05;100324.41;4899929;28;125301;-71
2021/07/24 07:34:27;;;;;;;9.82;8.93;;;;;;;34.04;28.80;100318.50;4899614;28;99079;-71
2021/07/24 07:36:53;;;;;;;10.48;9.35;;;;;;;34.25;29.24;100314.44;4898059;28;119701;-71
2021/07/24 07:39:19;;;;;;;10.05;9.15;;;;;;;34.53;28.63;100312.25;4899765;28;127022;-71
2021/07/24 07:41:46;;;;;;;10.45;9.45;;;;;;;34.68;28.36;100316.28;4898946;28;126702;-71
2021/07/24 07:44:12;;;;;;;10.15;9.13;;;;;;;34.92;28.78;100316.91;4900489;28;97858;-71
2021/07/24 07:46:38;;;;;;;10.52;9.52;;;;;;;35.16;28.62;100312.69;4899703;28;120324;-72
2021/07/24 07:49:04;;;;;;;9.93;8.95;;;;;;;35.39;27.52;100311.69;4899526;28;122643;-72
2021/07/24 07:51:30;;;;;;;10.10;8.95;;;;;;;35.53;27.22;100315.34;4897484;28;127381;-71
2021/07/24 07:53:56;;;;;;;9.75;8.82;;;;;;;35.68;27.41;100310.16;4900412;28;97778;-71
2021/07/24 07:56:22;;;;;;;10.07;9.15;;;;;;;35.96;26.93;100300.94;4913929;28;99919;-71
2021/07/24 07:58:48;;;;;;;10.90;9.77;;;;;;;36.17;26.89;100312.75;4900007;28;98468;-71
2021/07/24 08:01:14;;;;;;;10.23;9.25;;;;;;;36.53;26.28;100316.06;4899237;28;126642;-72
2021/07/24 08:03:40;;;;;;;10.55;9.23;;;;;;;37.03;26.41;100316.47;4913701;28;117632;-72
2021/07/24 08:06:06;;;;;;;10.15;9.23;;;;;;;37.25;25.31;100313.69;4896568;28;119185;-72
2021/07/24 08:08:33;;;;;;;10.48;9.20;;;;;;;37.60;25.39;100314.50;4893209;28;98603;-72
2021/07/24 08:11:00;;;;;;;10.05;9.25;;;;;;;38.07;24.89;100319.19;4899249;28;98172;-72
2021/07/24 08:13:27;;;;;;;10.60;9.45;;;;;;;38.52;24.33;100309.44;4900231;28;98093;-73
2021/07/24 08:15:53;;;;;;;10.45;9.35;;;;;;;38.86;23.59;100310.47;4892814;28;99208;-72
2021/07/24 08:18:19;;;;;;;10.35;9.35;;;;;;;39.26;23.10;100304.75;4900525;28;98447;-72
2021/07/24 08:20:45;;;;;;;9.98;9.07;;;;;;;39.67;22.56;100303.38;4898303;28;127127;-72
2021/07/24 08:23:13;;;;;;;9.65;8.73;;;;;;;40.10;22.74;100309.84;4897214;28;104893;-73
2021/07/24 08:25:40;;;;;;;10.13;9.13;;;;;;;40.52;22.08;100297.78;4899113;28;99217;-72
2021/07/24 08:28:06;;;;;;;10.10;9.20;;;;;;;41.11;21.73;100302.94;4865387;28;99668;-73
2021/07/24 08:30:33;;;;;;;9.40;8.55;;;;;;;41.70;21.05;100300.28;4898371;28;117941;-74
2021/07/24 08:32:59;;;;;;;10.00;9.00;;;;;;;42.06;20.72;100301.16;4882315;28;97797;-73
2021/07/24 08:35:25;;;;;;;10.05;9.07;;;;;;;42.41;20.23;100293.50;4898762;28;98988;-73
2021/07/24 08:37:51;;;;;;;9.82;8.70;;;;;;;42.88;19.78;100288.78;4899225;28;99221;-72
2021/07/24 08:40:17;;;;;;;10.65;9.02;;;;;;;43.25;19.46;100287.41;4879336;28;126905;-74
2021/07/24 08:42:44;;;;;;;9.13;8.32;;;;;;;43.45;19.37;100289.44;4882111;28;98060;-71
2021/07/24 08:45:13;;;;;;;10.20;9.20;;;;;;;43.45;19.21;100280.94;4899025;28;99166;-73
2021/07/24 08:47:39;;;;;;;9.90;8.90;;;;;;;43.66;19.09;100279.59;4899749;28;98524;-71
2021/07/24 08:50:08;;;;;;;9.50;8.70;;;;;;;42.44;20.06;100277.56;4897330;28;98940;-70
2021/07/24 08:52:36;;;;;;;9.88;8.88;;;;;;;41.65;20.74;100281.13;4897718;28;98010;-72
2021/07/24 08:55:04;;;;;;;15.50;10.30;;;;;;;42.55;21.51;100277.72;4898340;28;99359;-71
2021/07/24 08:57:35;;;;;;;9.32;8.63;;;;;;;43.17;19.85;100274.97;4899878;28;98908;-73
2021/07/24 09:00:12;;;;;;;9.75;8.85;;;;;;;43.78;19.62;100267.09;4898541;28;98073;-70
2021/07/24 09:02:41;;;;;;;10.25;8.95;;;;;;;44.14;19.71;100264.81;4899481;28;98067;-68
2021/07/24 09:05:08;;;;;;;9.68;8.85;;;;;;;44.59;18.93;100273.63;4898696;28;99181;-68
2021/07/24 09:07:46;;;;;;;9.50;8.70;;;;;;;45.15;19.60;100264.59;4898718;28;99289;-68
2021/07/24 09:10:13;;;;;;;9.70;8.70;;;;;;;45.35;18.69;100264.38;4898957;28;100435;-69
2021/07/24 09:12:44;;;;;;;9.40;8.60;;;;;;;45.63;18.52;100246.59;4900016;28;97998;-69
2021/07/24 09:15:12;;;;;;;9.40;8.55;;;;;;;45.89;17.93;100249.22;4898490;28;113202;-69
2021/07/24 09:17:38;;;;;;;9.40;8.52;;;;;;;45.60;17.16;100244.81;4898751;28;98858;-69
2021/07/24 09:20:05;;;;;;;10.10;8.18;;;;;;;45.28;17.79;100242.94;4897768;28;128650;-68
2021/07/24 09:22:39;;;;;;;8.85;8.05;;;;;;;45.42;17.63;100243.19;4898731;28;98120;-68
2021/07/24 09:25:18;;;;;;;9.07;8.25;;;;;;;45.37;18.10;100238.28;4898642;28;111650;-71
2021/07/24 09:27:51;;;;;;;9.87;8.97;;;;;;;44.78;18.78;100240.69;4898797;28;98918;-69
2021/07/24 09:30:24;;;;;;;11.50;8.32;;;;;;;44.21;19.73;100221.75;4896570;28;98855;-69
2021/07/24 09:33:13;;;;;;;9.23;8.43;;;;;;;43.92;20.73;100220.03;4899102;28;97879;-69
2021/07/24 09:35:41;;;;;;;9.05;8.32;;;;;;;43.61;19.42;100224.38;4896739;28;98595;-71
2021/07/24 09:38:13;;;;;;;9.60;8.63;;;;;;;43.62;19.36;100225.94;4880924;28;98207;-69
2021/07/24 09:40:40;;;;;;;8.73;7.90;;;;;;;43.91;19.68;100232.66;4899038;28;98282;-69
2021/07/24 09:43:39;;;;;;;10.57;8.23;;;;;;;44.54;19.51;100231.78;4899350;28;98017;-68
2021/07/24 09:46:18;;;;;;;9.15;8.27;;;;;;;44.89;19.21;100222.91;4898090;28;98722;-72
2021/07/24 09:48:51;;;;;;;9.00;8.20;;;;;;;45.33;18.05;100224.31;4898244;28;99088;-68
2021/07/24 09:51:40;;;;;;;8.40;7.70;;;;;;;45.75;17.82;100223.34;4897974;28;98704;-69
2021/07/24 09:54:21;;;;;;;8.70;7.90;;;;;;;45.71;16.85;100228.50;4898621;28;98012;-71
2021/07/24 09:56:49;;;;;;;10.68;8.70;;;;;;;45.82;16.62;100230.56;4896675;28;119802;-74
2021/07/24 09:59:36;;;;;;;8.63;7.82;;;;;;;45.93;17.22;100222.03;4896643;28;98809;-69
2021/07/24 10:02:07;;;;;;;8.57;7.78;;;;;;;46.06;16.84;100223.56;4895913;28;98084;-73
2021/07/24 10:04:42;;;;;;;8.40;7.68;;;;;;;46.46;17.38;100222.97;4898153;28;98524;-69
2021/07/24 10:07:09;;;;;;;7.97;7.28;;;;;;;46.55;16.32;100224.75;4860177;28;127367;-73
2021/07/24 10:09:42;;;;;;;7.90;7.18;;;;;;;46.69;16.11;100226.53;4890469;28;99006;-74
2021/07/24 10:12:09;;;;;;;8.15;7.35;;;;;;;46.63;15.49;100228.63;4896274;28;98208;-68
2021/07/24 10:14:39;;;;;;;8.50;7.53;;;;;;;46.61;15.95;100211.28;4890159;28;111155;-69
2021/07/24 10:17:05;;;;;;;;;;;;;;;47.19;16.64;100201.91;4896331;28;99188;-75
2021/07/24 10:19:31;;;;;;;8.05;7.25;;;;;;;46.74;16.43;100210.72;4895024;28;127678;-74
2021/07/24 10:21:58;;;;;;;8.68;7.60;;;;;;;46.91;16.06;100207.75;4897725;28;97910;-69
2021/07/24 10:24:24;;;;;;;8.57;7.80;;;;;;;46.94;15.81;100206.72;4898589;28;98013;-75
2021/07/24 10:26:55;;;;;;;8.43;7.63;;;;;;;46.92;16.38;100201.53;4897199;28;114086;-75
2021/07/24 10:29:48;;;;;;;8.23;7.43;;;;;;;46.96;16.62;100206.97;4897660;28;120354;-69
2021/07/24 10:32:15;;;;;;;7.68;7.07;;;;;;;46.98;15.90;100199.47;4900668;28;98293;-69
2021/07/24 10:34:51;;;;;;;8.00;7.20;;;;;;;47.06;16.21;100190.34;4885115;28;98318;-69
2021/07/24 10:37:39;;;;;;;7.63;7.03;;;;;;;47.30;16.38;100189.66;4892976;28;98944;-75
2021/07/24 10:40:17;;;;;;;8.70;6.97;;;;;;;47.09;15.84;100184.38;4901573;28;98124;-75
2021/07/24 10:42:53;;;;;;;6.78;6.28;;;;;;;46.92;15.86;100173.03;4901103;28;98593;-75
2021/07/24 10:45:35;;;;;;;8.13;7.25;;;;;;;47.04;15.55;100176.59;4901425;28;98022;-69
2021/07/24 10:48:13;;;;;;;7.10;6.50;;;;;;;46.77;15.08;100180.38;4901256;28;98983;-68
2021/07/24 10:50:55;;;;;;;7.85;7.13;;;;;;;46.63;16.24;100174.50;4901333;28;98602;-76
2021/07/24 10:53:28;;;;;;;7.18;6.50;;;;;;;46.62;15.18;100172.19;4901428;28;98019;-76
2021/07/24 10:55:56;;;;;;;7.47;6.88;;;;;;;44.96;16.73;100165.56;4898126;28;97932;-76
2021/07/24 10:58:24;;;;;;;7.70;7.00;;;;;;;45.15;16.61;100159.41;4900046;28;98877;-69
2021/07/24 11:00:52;;;;;;;7.15;6.53;;;;;;;43.77;17.49;100160.56;4899392;28;98651;-68
2021/07/24 11:03:34;;;;;;;7.85;7.03;;;;;;;44.75;17.09;100155.69;4883642;28;98501;-77
2021/07/24 11:06:01;;;;;;;8.35;7.13;;;;;;;44.92;16.03;100156.50;4901621;28;98283;-77
2021/07/24 11:09:11;;;;;;;7.45;6.78;;;;;;;45.02;16.04;100146.44;4900705;28;99041;-68
2021/07/24 11:11:41;;;;;;;7.05;6.45;;;;;;;44.98;15.79;100145.16;4898057;28;98582;-68
2021/07/24 11:14:09;;;;;;;8.98;6.88;;;;;;;42.97;17.72;100131.22;4900746;28;99040;-68
2021/07/24 11:17:08;;;;;;;8.05;6.75;;;;;;;42.26;18.70;100141.97;4898790;28;98334;-68
2021/07/24 11:19:50;;;;;;;7.65;6.95;;;;;;;43.18;18.40;100146.91;4877433;28;98277;-68
2021/07/24 11:22:29;;;;;;;7.85;7.03;;;;;;;41.82;19.62;100148.53;4898771;28;98506;-68